createdAt,value
2022-09-07T00:01:07.438Z,16.22
2022-09-07T00:03:36.315Z,16.14
2022-09-07T00:06:08.364Z,16.11
2022-09-07T00:08:36.996Z,16.17
2022-09-07T00:11:06.843Z,16.11
2022-09-07T00:13:38.821Z,16.04
2022-09-07T00:16:08.296Z,16.01
2022-09-07T00:18:36.414Z,16.06
2022-09-07T00:21:06.554Z,16.00
2022-09-07T00:23:36.125Z,16.06
2022-09-07T00:26:05.896Z,16.06
2022-09-07T00:28:36.277Z,16.10
2022-09-07T00:31:04.736Z,16.06
2022-09-07T00:33:32.908Z,15.97
2022-09-07T00:36:00.995Z,15.96
2022-09-07T00:38:29.370Z,16.01
2022-09-07T00:40:57.454Z,15.92
2022-09-07T00:43:40.657Z,16.04
2022-09-07T00:46:14.021Z,16.03
2022-09-07T00:48:47.372Z,15.92
2022-09-07T00:51:22.235Z,15.94
2022-09-07T00:53:55.566Z,15.94
2022-09-07T00:56:27.526Z,15.90
2022-09-07T00:58:58.789Z,15.87
2022-09-07T01:01:27.421Z,15.88
2022-09-07T01:03:58.522Z,15.88
2022-09-07T01:06:30.138Z,15.94
2022-09-07T01:09:02.601Z,15.93
2022-09-07T01:11:32.844Z,15.90
2022-09-07T01:14:03.998Z,15.82
2022-09-07T01:16:54.825Z,15.89
2022-09-07T01:19:58.641Z,15.84
2022-09-07T01:22:58.677Z,15.84
2022-09-07T01:25:42.645Z,15.83
2022-09-07T01:28:20.382Z,15.73
2022-09-07T01:30:56.301Z,15.81
2022-09-07T01:33:39.891Z,15.71
2022-09-07T01:36:19.984Z,15.56
2022-09-07T01:38:52.561Z,15.52
2022-09-07T01:41:26.388Z,15.54
2022-09-07T01:44:03.986Z,15.66
2022-09-07T01:46:36.667Z,15.65
2022-09-07T01:49:11.968Z,15.56
2022-09-07T01:51:46.690Z,15.39
2022-09-07T01:54:22.419Z,15.16
2022-09-07T01:56:54.479Z,15.09
2022-09-07T01:59:30.236Z,14.91
2022-09-07T02:02:04.491Z,14.89
2022-09-07T02:04:37.144Z,14.74
2022-09-07T02:07:11.350Z,14.86
2022-09-07T02:09:43.754Z,14.98
2022-09-07T02:12:19.817Z,15.13
2022-09-07T02:14:54.736Z,15.19
2022-09-07T02:17:28.334Z,15.27
2022-09-07T02:20:01.658Z,15.27
2022-09-07T02:22:34.153Z,15.30
2022-09-07T02:25:05.930Z,15.31
2022-09-07T02:27:40.770Z,15.32
2022-09-07T02:30:11.420Z,15.38
2022-09-07T02:32:39.619Z,15.36
2022-09-07T02:35:08.509Z,15.26
2022-09-07T02:37:37.744Z,15.17
2022-09-07T02:40:07.124Z,15.07
2022-09-07T02:42:37.524Z,15.02
2022-09-07T02:45:09.497Z,15.02
2022-09-07T02:47:52.092Z,15.13
2022-09-07T02:50:38.638Z,15.19
2022-09-07T02:53:31.765Z,15.18
2022-09-07T02:56:12.443Z,15.16
2022-09-07T02:58:50.487Z,15.12
2022-09-07T03:01:33.256Z,15.08
2022-09-07T03:04:09.029Z,15.06
2022-09-07T03:06:42.070Z,14.99
2022-09-07T03:09:16.215Z,14.93
2022-09-07T03:11:44.374Z,14.93
2022-09-07T03:14:13.950Z,15.00
2022-09-07T03:16:42.002Z,14.99
2022-09-07T03:19:11.485Z,15.04
2022-09-07T03:21:39.567Z,14.98
2022-09-07T03:24:08.085Z,15.07
2022-09-07T03:26:39.683Z,15.06
2022-09-07T03:29:07.999Z,14.99
2022-09-07T03:31:36.729Z,14.89
2022-09-07T03:34:06.023Z,14.83
2022-09-07T03:36:36.186Z,14.82
2022-09-07T03:39:04.847Z,14.81
2022-09-07T03:41:32.934Z,14.87
2022-09-07T03:44:04.153Z,14.91
2022-09-07T03:46:32.416Z,14.92
2022-09-07T03:49:00.574Z,14.89
2022-09-07T03:51:28.700Z,14.89
2022-09-07T03:54:00.158Z,14.77
2022-09-07T03:56:28.258Z,14.61
2022-09-07T03:58:56.906Z,14.81
2022-09-07T04:01:27.320Z,14.86
2022-09-07T04:04:02.103Z,14.80
2022-09-07T04:06:31.409Z,14.78
2022-09-07T04:09:03.192Z,14.80
2022-09-07T04:11:31.723Z,14.80
2022-09-07T04:13:59.880Z,14.75
2022-09-07T04:16:29.246Z,14.72
2022-09-07T04:18:59.394Z,14.72
2022-09-07T04:21:29.468Z,14.70
2022-09-07T04:23:57.542Z,14.67
2022-09-07T04:26:29.042Z,14.73
2022-09-07T04:28:57.366Z,14.66
2022-09-07T04:31:26.669Z,14.68
2022-09-07T04:33:55.787Z,14.72
2022-09-07T04:36:24.905Z,14.78
2022-09-07T04:38:56.797Z,14.84
2022-09-07T04:41:27.023Z,14.88
2022-09-07T04:43:57.321Z,15.07
2022-09-07T04:46:27.463Z,15.14
2022-09-07T04:48:57.715Z,15.31
2022-09-07T04:51:29.682Z,15.50
2022-09-07T04:53:59.197Z,15.60
2022-09-07T04:56:28.677Z,15.67
2022-09-07T04:58:56.962Z,15.76
2022-09-07T05:01:26.481Z,15.90
2022-09-07T05:03:54.867Z,16.05
2022-09-07T05:06:24.180Z,16.22
2022-09-07T05:08:54.073Z,16.36
2022-09-07T05:11:28.779Z,16.52
2022-09-07T05:13:59.997Z,16.72
2022-09-07T05:16:29.173Z,16.95
2022-09-07T05:18:59.989Z,17.03
2022-09-07T05:21:29.313Z,17.25
2022-09-07T05:23:59.123Z,17.41
2022-09-07T05:26:28.771Z,17.58
2022-09-07T05:31:50.685Z,17.89
2022-09-07T05:34:33.978Z,18.08
2022-09-07T05:37:02.972Z,18.30
2022-09-07T05:39:31.507Z,18.44
2022-09-07T05:41:59.615Z,18.63
2022-09-07T05:44:46.362Z,18.69
2022-09-07T05:47:14.807Z,18.76
2022-09-07T05:49:42.899Z,18.92
2022-09-07T05:52:11.405Z,18.98
2022-09-07T05:54:39.486Z,19.15
2022-09-07T05:57:08.076Z,19.29
2022-09-07T05:59:37.515Z,19.36
2022-09-07T06:02:06.279Z,19.37
2022-09-07T06:04:34.421Z,19.38
2022-09-07T06:07:21.214Z,19.74
2022-09-07T06:12:38.495Z,19.89
2022-09-07T06:15:09.435Z,20.02
2022-09-07T06:17:37.479Z,20.19
2022-09-07T06:20:07.502Z,20.41
2022-09-07T06:22:36.733Z,20.61
2022-09-07T06:25:05.274Z,20.83
2022-09-07T06:27:33.371Z,20.90
2022-09-07T06:30:01.430Z,21.03
2022-09-07T06:32:46.395Z,21.14
2022-09-07T06:35:15.086Z,21.32
2022-09-07T06:37:43.408Z,21.47
2022-09-07T06:40:12.586Z,21.57
2022-09-07T06:42:41.032Z,21.70
2022-09-07T06:45:11.416Z,21.96
2022-09-07T06:47:41.419Z,21.89
2022-09-07T06:50:11.400Z,22.04
2022-09-07T06:55:28.963Z,22.41
2022-09-07T06:57:57.123Z,22.55
2022-09-07T07:00:25.300Z,22.71
2022-09-07T07:02:54.897Z,22.88
2022-09-07T07:05:22.986Z,22.81
2022-09-07T07:07:51.046Z,22.79
2022-09-07T07:10:24.309Z,23.20
2022-09-07T07:12:57.402Z,23.31
2022-09-07T07:15:26.572Z,23.46
2022-09-07T07:17:59.121Z,23.68
2022-09-07T07:20:30.787Z,23.76
2022-09-07T07:22:58.888Z,23.79
2022-09-07T07:25:26.984Z,24.01
2022-09-07T07:27:55.308Z,23.75
2022-09-07T07:30:23.814Z,23.78
2022-09-07T07:32:52.001Z,24.05
2022-09-07T07:35:21.474Z,24.25
2022-09-07T07:37:49.706Z,24.32
2022-09-07T07:40:19.951Z,24.51
2022-09-07T07:42:51.535Z,24.62
2022-09-07T07:48:07.769Z,24.53
2022-09-07T07:50:37.187Z,24.53
2022-09-07T07:55:53.699Z,24.60
2022-09-07T07:58:22.609Z,24.72
2022-09-07T08:00:54.585Z,25.14
2022-09-07T08:03:23.739Z,25.07
2022-09-07T08:05:53.399Z,25.27
2022-09-07T08:08:21.644Z,25.40
2022-09-07T08:10:49.702Z,25.30
2022-09-07T08:13:19.320Z,25.50
2022-09-07T08:15:47.476Z,25.60
2022-09-07T08:18:17.854Z,25.52
2022-09-07T08:20:46.107Z,25.58
2022-09-07T08:23:15.826Z,25.40
2022-09-07T08:25:51.485Z,25.74
2022-09-07T08:28:19.666Z,25.66
2022-09-07T08:30:47.665Z,25.67
2022-09-07T08:33:15.835Z,25.74
2022-09-07T08:35:43.848Z,25.73
2022-09-07T08:38:12.084Z,25.72
2022-09-07T08:40:41.555Z,25.94
2022-09-07T08:43:19.219Z,26.18
2022-09-07T08:45:50.047Z,26.07
2022-09-07T08:48:31.298Z,26.01
2022-09-07T08:51:05.002Z,26.19
2022-09-07T08:53:33.438Z,26.43
2022-09-07T08:56:07.104Z,26.52
2022-09-07T08:58:49.052Z,26.63
2022-09-07T09:01:35.696Z,26.45
2022-09-07T09:04:22.371Z,26.63
2022-09-07T09:07:05.228Z,26.31
2022-09-07T09:09:48.749Z,26.13
2022-09-07T09:12:29.135Z,26.33
2022-09-07T09:15:11.091Z,26.49
2022-09-07T09:17:45.498Z,26.70
2022-09-07T09:20:24.525Z,26.64
2022-09-07T09:22:53.327Z,26.86
2022-09-07T09:25:23.398Z,27.04
2022-09-07T09:27:52.742Z,27.18
2022-09-07T09:30:23.573Z,26.87
2022-09-07T09:32:53.560Z,26.69
2022-09-07T09:35:30.013Z,26.83
2022-09-07T09:37:58.405Z,26.77
2022-09-07T09:40:28.688Z,26.35
2022-09-07T09:43:04.128Z,26.08
2022-09-07T09:48:32.635Z,26.71
2022-09-07T09:53:58.723Z,26.97
2022-09-07T09:56:38.681Z,27.00
2022-09-07T10:05:30.153Z,27.53
2022-09-07T10:07:59.053Z,27.58
2022-09-07T10:10:28.363Z,27.62
2022-09-07T10:12:56.955Z,27.87
2022-09-07T10:15:40.067Z,28.04
2022-09-07T10:18:18.720Z,27.58
2022-09-07T10:20:46.765Z,27.38
2022-09-07T10:23:22.499Z,27.45
2022-09-07T10:25:50.778Z,27.41
2022-09-07T10:28:21.506Z,27.38
2022-09-07T10:31:12.323Z,27.49
2022-09-07T10:36:44.205Z,27.44
2022-09-07T10:39:17.263Z,27.68
2022-09-07T10:41:54.044Z,27.94
2022-09-07T10:44:34.481Z,27.86
2022-09-07T10:47:16.680Z,27.52
2022-09-07T10:52:50.620Z,27.80
2022-09-07T10:55:26.429Z,27.93
2022-09-07T10:58:02.952Z,28.08
2022-09-07T11:00:39.462Z,27.73
2022-09-07T11:03:26.297Z,27.72
2022-09-07T11:06:07.810Z,27.82
2022-09-07T11:14:36.286Z,27.54
2022-09-07T11:17:10.027Z,27.73
2022-09-07T11:19:45.942Z,27.77
2022-09-07T11:22:23.830Z,27.85
2022-09-07T11:27:48.333Z,27.47
2022-09-07T11:30:22.426Z,27.54
2022-09-07T11:32:59.367Z,27.54
2022-09-07T11:35:37.799Z,27.63
2022-09-07T11:38:23.658Z,27.62
2022-09-07T11:41:00.798Z,27.64
2022-09-07T11:43:32.572Z,27.60
2022-09-07T11:46:05.490Z,27.67
2022-09-07T11:48:39.447Z,27.14
2022-09-07T11:51:14.699Z,27.48
2022-09-07T11:53:47.899Z,27.41
2022-09-07T11:56:19.634Z,27.48
2022-09-07T11:59:01.413Z,27.56
2022-09-07T12:01:41.132Z,27.59
2022-09-07T12:04:29.750Z,27.53
2022-09-07T12:07:37.530Z,27.38
2022-09-07T12:10:41.979Z,27.56
2022-09-07T12:13:33.400Z,27.29
2022-09-07T12:16:07.274Z,27.32
2022-09-07T12:19:01.690Z,27.22
2022-09-07T12:21:33.330Z,27.00
2022-09-07T12:24:02.806Z,27.20
2022-09-07T12:26:52.986Z,27.35
2022-09-07T12:29:24.157Z,27.14
2022-09-07T12:32:52.630Z,27.16
2022-09-07T12:34:52.489Z,27.17
2022-09-07T12:37:41.892Z,27.03
2022-09-07T12:41:01.343Z,27.21
2022-09-07T12:43:52.953Z,27.01
2022-09-07T12:46:46.737Z,26.73
2022-09-07T12:49:49.858Z,26.49
2022-09-07T12:52:43.334Z,26.36
2022-09-07T12:55:28.397Z,26.56
2022-09-07T12:58:14.180Z,26.58
2022-09-07T13:01:00.661Z,26.48
2022-09-07T13:03:57.429Z,26.11
2022-09-07T13:09:34.077Z,26.19
2022-09-07T13:12:07.205Z,26.18
2022-09-07T13:14:39.643Z,26.14
2022-09-07T13:17:44.051Z,26.06
2022-09-07T13:20:30.392Z,25.99
2022-09-07T13:23:10.512Z,26.26
2022-09-07T13:25:50.593Z,26.03
2022-09-07T13:28:26.042Z,26.03
2022-09-07T13:31:07.090Z,25.62
2022-09-07T13:33:54.903Z,25.47
2022-09-07T13:36:40.178Z,25.49
2022-09-07T13:39:13.725Z,25.54
2022-09-07T13:41:47.371Z,25.73
2022-09-07T13:44:25.824Z,25.61
2022-09-07T13:47:28.904Z,25.39
2022-09-07T13:50:05.573Z,25.48
2022-09-07T13:52:47.932Z,25.14
2022-09-07T13:55:31.409Z,25.13
2022-09-07T13:58:11.948Z,25.13
2022-09-07T14:00:52.287Z,25.20
2022-09-07T14:03:20.574Z,25.07
2022-09-07T14:05:49.878Z,24.76
2022-09-07T14:08:26.615Z,24.96
2022-09-07T14:10:54.874Z,24.70
2022-09-07T14:13:22.799Z,24.74
2022-09-07T14:15:52.096Z,24.84
2022-09-07T14:18:24.435Z,24.89
2022-09-07T14:20:54.695Z,24.63
2022-09-07T14:23:28.170Z,24.54
2022-09-07T14:26:17.835Z,24.49
2022-09-07T14:28:48.089Z,24.60
2022-09-07T14:31:18.207Z,24.45
2022-09-07T14:33:50.708Z,24.35
2022-09-07T14:36:42.506Z,24.58
2022-09-07T14:39:10.234Z,24.68
2022-09-07T14:41:40.713Z,24.65
2022-09-07T14:44:28.150Z,24.44
2022-09-07T14:46:57.201Z,24.35
2022-09-07T14:49:26.732Z,24.38
2022-09-07T14:51:56.309Z,24.28
2022-09-07T14:54:28.741Z,24.20
2022-09-07T14:57:03.004Z,24.22
2022-09-07T14:59:41.331Z,24.24
2022-09-07T15:02:27.384Z,24.29
2022-09-07T15:05:18.902Z,24.18
2022-09-07T15:07:49.735Z,23.99
2022-09-07T15:10:28.440Z,23.97
2022-09-07T15:12:58.018Z,23.71
2022-09-07T15:15:29.153Z,23.51
2022-09-07T15:18:04.604Z,23.44
2022-09-07T15:20:41.028Z,23.45
2022-09-07T15:23:15.647Z,23.33
2022-09-07T15:25:50.491Z,23.42
2022-09-07T15:34:03.769Z,23.23
2022-09-07T15:36:32.365Z,23.20
2022-09-07T15:39:03.117Z,23.18
2022-09-07T15:41:31.579Z,23.16
2022-09-07T15:44:00.156Z,23.25
2022-09-07T15:46:28.339Z,23.39
2022-09-07T15:48:57.337Z,23.47
2022-09-07T15:54:17.081Z,23.51
2022-09-07T15:57:48.378Z,23.43
2022-09-07T15:59:35.389Z,23.48
2022-09-07T16:02:03.740Z,23.42
2022-09-07T16:04:32.047Z,23.45
2022-09-07T16:07:01.686Z,23.48
2022-09-07T16:09:31.160Z,23.39
2022-09-07T16:13:00.067Z,23.41
2022-09-07T16:14:47.126Z,23.25
2022-09-07T16:20:03.312Z,23.30
2022-09-07T16:25:21.305Z,23.26
2022-09-07T16:27:49.972Z,23.17
2022-09-07T16:30:18.099Z,23.06
2022-09-07T16:32:46.142Z,23.03
2022-09-07T16:35:14.167Z,22.97
2022-09-07T16:38:43.516Z,22.95
2022-09-07T16:40:31.651Z,22.88
2022-09-07T16:42:59.566Z,22.77
2022-09-07T16:48:15.374Z,22.52
2022-09-07T16:51:00.415Z,22.28
2022-09-07T16:53:29.767Z,22.19
2022-09-07T16:56:03.301Z,22.08
2022-09-07T16:58:36.769Z,22.06
2022-09-07T17:01:06.662Z,21.93
2022-09-07T17:03:35.671Z,21.64
2022-09-07T17:06:05.587Z,21.38
2022-09-07T17:08:34.502Z,21.24
2022-09-07T17:11:05.793Z,20.84
2022-09-07T17:13:35.133Z,20.75
2022-09-07T17:16:04.377Z,20.90
2022-09-07T17:21:21.055Z,20.80
2022-09-07T17:23:54.884Z,20.70
2022-09-07T17:26:27.365Z,20.48
2022-09-07T17:29:00.324Z,20.34
2022-09-07T17:34:19.736Z,20.02
2022-09-07T17:36:48.174Z,20.00
2022-09-07T17:39:18.082Z,20.09
2022-09-07T17:41:49.643Z,20.11
2022-09-07T17:44:17.594Z,20.01
2022-09-07T17:46:45.608Z,20.03
2022-09-07T17:49:16.491Z,19.97
2022-09-07T17:51:45.562Z,19.87
2022-09-07T17:54:16.721Z,19.73
2022-09-07T17:56:45.278Z,19.45
2022-09-07T18:02:03.026Z,19.29
2022-09-07T18:04:31.037Z,19.39
2022-09-07T18:06:59.064Z,19.46
2022-09-07T18:09:26.977Z,19.47
2022-09-07T18:11:54.936Z,19.51
2022-09-07T18:14:24.241Z,19.54
2022-09-07T18:16:52.426Z,19.59
2022-09-07T18:19:20.849Z,19.39
2022-09-07T18:21:50.615Z,19.42
2022-09-07T18:24:22.034Z,19.49
2022-09-07T18:26:52.319Z,19.59
2022-09-07T18:29:36.817Z,19.64
2022-09-07T18:32:09.893Z,19.60
2022-09-07T18:34:40.660Z,19.59
2022-09-07T18:37:09.188Z,19.48
2022-09-07T18:39:37.174Z,19.43
2022-09-07T18:42:05.478Z,19.45
2022-09-07T18:47:28.645Z,19.21
2022-09-07T18:49:58.170Z,19.41
2022-09-07T18:55:14.349Z,19.48
2022-09-07T18:57:42.465Z,19.47
2022-09-07T19:00:12.481Z,19.52
2022-09-07T19:02:41.998Z,19.22
2022-09-07T19:07:59.649Z,19.38
2022-09-07T19:10:27.705Z,19.38
2022-09-07T19:12:56.424Z,19.35
2022-09-07T19:15:24.343Z,19.33
2022-09-07T19:17:53.665Z,19.40
2022-09-07T19:20:21.590Z,19.47
2022-09-07T19:22:49.541Z,19.57
2022-09-07T19:25:19.415Z,19.55
2022-09-07T19:27:47.366Z,19.48
2022-09-07T19:30:15.664Z,19.40
2022-09-07T19:32:43.593Z,19.46
2022-09-07T19:35:12.873Z,19.38
2022-09-07T19:37:40.806Z,19.29
2022-09-07T19:40:15.839Z,19.26
2022-09-07T19:42:45.381Z,19.28
2022-09-07T19:45:15.127Z,19.30
2022-09-07T19:47:43.065Z,19.30
2022-09-07T19:50:12.617Z,19.33
2022-09-07T19:52:40.528Z,19.31
2022-09-07T19:55:09.767Z,19.31
2022-09-07T19:57:37.661Z,19.37
2022-09-07T20:00:06.463Z,19.41
2022-09-07T20:02:34.381Z,19.32
2022-09-07T20:05:02.309Z,19.36
2022-09-07T20:07:31.643Z,19.27
2022-09-07T20:09:59.557Z,19.26
2022-09-07T20:12:27.450Z,19.27
2022-09-07T20:14:55.362Z,19.30
2022-09-07T20:17:23.262Z,19.31
2022-09-07T20:19:51.686Z,19.31
2022-09-07T20:22:19.955Z,19.22
2022-09-07T20:24:49.248Z,19.26
2022-09-07T20:27:17.218Z,19.24
2022-09-07T20:29:45.129Z,19.26
2022-09-07T20:32:13.541Z,19.20
2022-09-07T20:34:41.465Z,19.19
2022-09-07T20:37:09.389Z,19.16
2022-09-07T20:39:39.518Z,19.13
2022-09-07T20:42:09.128Z,19.11
2022-09-07T20:44:37.079Z,19.08
2022-09-07T20:47:05.265Z,18.97
2022-09-07T20:49:33.206Z,19.00
2022-09-07T20:52:01.154Z,18.90
2022-09-07T20:54:29.085Z,18.84
2022-09-07T20:56:59.198Z,18.79
2022-09-07T20:59:31.365Z,18.85
2022-09-07T21:01:59.368Z,18.62
2022-09-07T21:04:27.617Z,18.86
2022-09-07T21:06:55.510Z,18.74
2022-09-07T21:09:23.493Z,18.78
2022-09-07T21:11:54.063Z,18.71
2022-09-07T21:14:25.034Z,18.72
2022-09-07T21:16:54.356Z,18.72
2022-09-07T21:19:22.491Z,18.69
2022-09-07T21:21:50.394Z,18.60
2022-09-07T21:24:20.459Z,18.61
2022-09-07T21:26:49.426Z,18.54
2022-09-07T21:29:19.586Z,18.48
2022-09-07T21:31:48.042Z,18.56
2022-09-07T21:34:17.866Z,18.59
2022-09-07T21:36:46.118Z,18.53
2022-09-07T21:39:14.884Z,18.52
2022-09-07T21:41:43.517Z,18.45
2022-09-07T21:44:13.791Z,18.53
2022-09-07T21:46:42.073Z,18.42
2022-09-07T21:49:10.316Z,18.41
2022-09-07T21:51:39.910Z,18.30
2022-09-07T21:54:08.033Z,18.31
2022-09-07T21:56:36.054Z,18.26
2022-09-07T21:59:04.761Z,18.28
2022-09-07T22:01:33.246Z,18.36
2022-09-07T22:04:03.325Z,18.27
2022-09-07T22:06:32.477Z,18.19
2022-09-07T22:09:02.789Z,18.28
2022-09-07T22:11:30.967Z,18.27
2022-09-07T22:14:00.634Z,18.16
2022-09-07T22:16:28.992Z,18.11
2022-09-07T22:18:57.559Z,18.12
2022-09-07T22:21:27.303Z,18.09
2022-09-07T22:23:58.421Z,18.08
2022-09-07T22:26:29.437Z,18.10
2022-09-07T22:28:57.470Z,18.01
2022-09-07T22:31:27.412Z,18.00
2022-09-07T22:33:56.825Z,17.99
2022-09-07T22:36:27.977Z,18.01
2022-09-07T22:38:57.802Z,18.01
2022-09-07T22:41:30.032Z,18.02
2022-09-07T22:43:58.167Z,18.04
2022-09-07T22:46:28.087Z,17.97
2022-09-07T22:48:57.108Z,17.87
2022-09-07T22:51:26.304Z,17.68
2022-09-07T22:53:54.620Z,17.92
2022-09-07T22:56:25.003Z,17.87
2022-09-07T22:58:56.169Z,17.90
2022-09-07T23:01:24.818Z,17.86
2022-09-07T23:03:53.446Z,17.89
2022-09-07T23:06:23.503Z,17.89
2022-09-07T23:08:52.358Z,17.88
2022-09-07T23:11:21.010Z,17.80
2022-09-07T23:13:51.809Z,17.80
2022-09-07T23:16:21.802Z,17.80
2022-09-07T23:18:50.534Z,17.77
2022-09-07T23:21:19.229Z,17.72
2022-09-07T23:23:51.309Z,17.65
2022-09-07T23:26:19.343Z,17.60
2022-09-07T23:28:51.346Z,17.62
2022-09-07T23:31:20.840Z,17.65
2022-09-07T23:33:48.882Z,17.62
2022-09-07T23:36:17.598Z,17.54
2022-09-07T23:38:45.666Z,17.47
2022-09-07T23:41:14.618Z,17.44
2022-09-07T23:43:42.650Z,17.48
2022-09-07T23:46:11.605Z,17.41
2022-09-07T23:48:41.055Z,17.40
2022-09-07T23:51:08.976Z,17.42
2022-09-07T23:53:36.894Z,17.41
2022-09-07T23:56:05.322Z,17.48
2022-09-07T23:58:33.357Z,17.51
